Time,TemperatureF,DewpointF,PressureIn,WindDirection,WindDirectionDegrees,WindSpeedMPH,WindSpeedGustMPH,Humidity,HourlyPrecipIn,Conditions,Clouds,dailyrainin,SoftwareType,DateUTC
2013-01-10 00:01:00,24.9,21.5,30.48,SSW,197,0.0,0.0,86,0.00,,---,0.00,VWS V14.01,2013-01-10 06:01:00,
2013-01-10 00:06:00,24.8,21.4,30.48,SSW,197,0.0,0.0,86,0.00,,---,0.00,VWS V14.01,2013-01-10 06:06:00,
2013-01-10 00:11:00,24.6,21.1,30.48,SSW,197,0.0,0.0,86,0.00,,---,0.00,VWS V14.01,2013-01-10 06:11:00,
2013-01-10 00:16:00,24.5,21.3,30.47,SSW,197,0.0,0.0,87,0.00,,---,0.00,VWS V14.01,2013-01-10 06:16:00,
2013-01-10 00:21:00,24.4,21.2,30.47,SSW,197,0.0,0.0,87,0.00,,---,0.00,VWS V14.01,2013-01-10 06:21:00,
2013-01-10 00:26:00,24.3,21.1,30.47,SSW,197,0.0,0.0,87,0.00,,---,0.00,VWS V14.01,2013-01-10 06:26:00,
2013-01-10 00:31:00,24.0,20.8,30.47,SSW,197,0.0,0.0,87,0.00,,---,0.00,VWS V14.01,2013-01-10 06:31:00,
2013-01-10 00:36:00,24.4,21.2,30.47,SSW,197,0.0,0.0,87,0.00,,---,0.00,VWS V14.01,2013-01-10 06:36:00,
2013-01-10 00:41:00,24.7,21.8,30.47,SSW,197,0.0,0.0,88,0.00,,---,0.00,VWS V14.01,2013-01-10 06:41:00,
2013-01-10 00:46:00,24.7,21.8,30.47,SSW,197,0.0,0.0,88,0.00,,---,0.00,VWS V14.01,2013-01-10 06:46:00,
2013-01-10 00:51:00,24.6,21.6,30.47,SSW,197,0.0,0.0,88,0.00,,---,0.00,VWS V14.01,2013-01-10 06:51:00,
2013-01-10 00:56:00,24.6,21.6,30.46,SSW,197,0.0,0.0,88,0.00,,---,0.00,VWS V14.01,2013-01-10 06:56:00,
2013-01-10 01:01:00,24.5,21.6,30.46,SSW,197,0.0,0.0,88,0.00,,---,0.00,VWS V14.01,2013-01-10 07:01:00,
2013-01-10 01:06:00,24.4,21.5,30.46,SSW,197,0.0,0.0,88,0.00,,---,0.00,VWS V14.01,2013-01-10 07:06:00,
2013-01-10 01:11:00,24.1,20.9,30.46,SSW,197,0.0,0.0,87,0.00,,---,0.00,VWS V14.01,2013-01-10 07:11:00,
2013-01-10 01:16:00,23.8,20.6,30.47,SSW,197,0.0,0.0,87,0.00,,---,0.00,VWS V14.01,2013-01-10 07:16:00,
2013-01-10 01:21:00,23.7,20.8,30.47,SSW,196,0.0,0.0,88,0.00,,---,0.00,VWS V14.01,2013-01-10 07:21:00,
2013-01-10 01:26:00,23.6,20.7,30.47,SSW,197,0.0,0.0,88,0.00,,---,0.00,VWS V14.01,2013-01-10 07:26:00,
2013-01-10 01:31:00,23.5,20.6,30.47,SSW,197,0.0,0.0,88,0.00,,---,0.00,VWS V14.01,2013-01-10 07:31:00,
2013-01-10 01:36:00,23.6,20.7,30.47,SSW,196,0.0,0.0,88,0.00,,---,0.00,VWS V14.01,2013-01-10 07:36:00,
2013-01-10 01:41:00,23.7,20.8,30.47,SSW,197,0.0,0.0,88,0.00,,---,0.00,VWS V14.01,2013-01-10 07:41:00,
2013-01-10 01:46:00,23.9,21.0,30.47,SSW,197,0.0,0.0,88,0.00,,---,0.00,VWS V14.01,2013-01-10 07:46:00,
2013-01-10 01:51:00,23.9,21.0,30.47,SSW,197,0.0,0.0,88,0.00,,---,0.00,VWS V14.01,2013-01-10 07:51:00,
2013-01-10 01:56:00,23.9,21.0,30.47,SSW,197,0.0,0.0,88,0.00,,---,0.00,VWS V14.01,2013-01-10 07:56:00,
2013-01-10 02:01:00,23.9,21.0,30.47,SSW,197,0.0,0.0,88,0.00,,---,0.00,VWS V14.01,2013-01-10 08:01:00,
2013-01-10 02:06:00,23.9,21.0,30.47,SSW,197,0.0,0.0,88,0.00,,---,0.00,VWS V14.01,2013-01-10 08:06:00,
2013-01-10 02:11:00,23.9,21.0,30.47,SSW,197,0.0,0.0,88,0.00,,---,0.00,VWS V14.01,2013-01-10 08:11:00,
2013-01-10 02:16:00,23.8,20.9,30.46,SSW,196,0.0,0.0,88,0.00,,---,0.00,VWS V14.01,2013-01-10 08:16:00,
2013-01-10 02:21:00,23.7,20.8,30.46,SSW,197,0.0,0.0,88,0.00,,---,0.00,VWS V14.01,2013-01-10 08:21:00,
2013-01-10 02:26:00,23.6,20.7,30.46,SSW,197,0.0,0.0,88,0.00,,---,0.00,VWS V14.01,2013-01-10 08:26:00,
2013-01-10 02:31:00,23.5,20.6,30.46,SSW,196,0.0,0.0,88,0.00,,---,0.00,VWS V14.01,2013-01-10 08:31:00,
2013-01-10 02:36:00,23.4,20.5,30.45,SSW,197,0.0,0.0,88,0.00,,---,0.00,VWS V14.01,2013-01-10 08:36:00,
2013-01-10 02:41:00,23.4,20.5,30.45,SSW,197,0.0,0.0,88,0.00,,---,0.00,VWS V14.01,2013-01-10 08:41:00,
2013-01-10 02:46:00,23.4,20.5,30.45,SSW,197,0.0,0.0,88,0.00,,---,0.00,VWS V14.01,2013-01-10 08:46:00,
2013-01-10 02:51:00,23.6,20.7,30.44,SSW,197,0.0,0.0,88,0.00,,---,0.00,VWS V14.01,2013-01-10 08:51:00,
2013-01-10 02:56:00,23.9,21.2,30.44,SSW,197,0.0,0.0,89,0.00,,---,0.00,VWS V14.01,2013-01-10 08:56:00,
2013-01-10 03:01:00,24.2,21.5,30.45,SSW,197,0.0,0.0,89,0.00,,---,0.00,VWS V14.01,2013-01-10 09:01:00,
2013-01-10 03:06:00,24.3,21.6,30.44,SSW,197,0.0,0.0,89,0.00,,---,0.00,VWS V14.01,2013-01-10 09:06:00,
2013-01-10 03:10:00,24.4,21.7,30.45,SSW,197,0.0,0.0,89,0.00,,---,0.00,VWS V14.01,2013-01-10 09:10:00,
2013-01-10 03:15:00,24.3,21.6,30.45,SSW,197,0.0,0.0,89,0.00,,---,0.00,VWS V14.01,2013-01-10 09:15:00,
2013-01-10 03:20:00,24.4,21.7,30.44,SSW,197,0.0,0.0,89,0.00,,---,0.00,VWS V14.01,2013-01-10 09:20:00,
2013-01-10 03:25:00,24.4,21.5,30.45,SSW,197,0.0,0.0,88,0.00,,---,0.00,VWS V14.01,2013-01-10 09:25:00,
2013-01-10 03:30:00,24.4,21.5,30.45,SSW,197,0.0,0.0,88,0.00,,---,0.00,VWS V14.01,2013-01-10 09:30:00,
2013-01-10 03:35:00,24.4,21.5,30.45,SSW,196,0.0,0.0,88,0.00,,---,0.00,VWS V14.01,2013-01-10 09:35:00,
2013-01-10 03:40:00,24.3,21.4,30.45,SSW,197,0.0,0.0,88,0.00,,---,0.00,VWS V14.01,2013-01-10 09:40:00,
2013-01-10 03:45:00,24.3,21.4,30.45,SSW,197,0.0,0.0,88,0.00,,---,0.00,VWS V14.01,2013-01-10 09:45:00,
2013-01-10 03:50:00,24.4,21.5,30.44,SSW,197,0.0,0.0,88,0.00,,---,0.00,VWS V14.01,2013-01-10 09:50:00,
2013-01-10 03:55:00,24.3,21.4,30.45,SSW,197,0.0,0.0,88,0.00,,---,0.00,VWS V14.01,2013-01-10 09:55:00,
2013-01-10 04:00:00,24.3,21.4,30.44,SSW,194,0.0,0.0,88,0.00,,---,0.00,VWS V14.01,2013-01-10 10:00:00,
2013-01-10 04:05:00,24.3,21.4,30.44,SSW,194,0.0,0.0,88,0.00,,---,0.00,VWS V14.01,2013-01-10 10:05:00,
2013-01-10 04:10:00,24.4,21.5,30.44,SSW,195,0.0,0.0,88,0.00,,---,0.00,VWS V14.01,2013-01-10 10:10:00,
2013-01-10 04:15:00,24.3,21.4,30.43,SSW,195,0.0,0.0,88,0.00,,---,0.00,VWS V14.01,2013-01-10 10:15:00,
2013-01-10 04:20:00,24.3,21.4,30.43,SSW,194,0.0,0.0,88,0.00,,---,0.00,VWS V14.01,2013-01-10 10:20:00,
2013-01-10 04:25:00,24.3,21.4,30.44,SSW,194,0.0,0.0,88,0.00,,---,0.00,VWS V14.01,2013-01-10 10:25:00,
2013-01-10 04:30:00,24.2,21.3,30.44,SSW,195,0.0,0.0,88,0.00,,---,0.00,VWS V14.01,2013-01-10 10:30:00,
2013-01-10 04:35:00,24.3,21.4,30.43,SSW,195,0.0,0.0,88,0.00,,---,0.00,VWS V14.01,2013-01-10 10:35:00,
2013-01-10 04:40:00,24.2,21.3,30.43,SSW,195,0.0,0.0,88,0.00,,---,0.00,VWS V14.01,2013-01-10 10:40:00,
2013-01-10 04:45:00,24.2,21.3,30.43,SSW,195,0.0,0.0,88,0.00,,---,0.00,VWS V14.01,2013-01-10 10:45:00,
2013-01-10 04:50:00,24.2,21.3,30.43,SSW,194,0.0,0.0,88,0.00,,---,0.00,VWS V14.01,2013-01-10 10:50:00,
2013-01-10 04:55:00,24.3,21.4,30.42,SSW,194,0.0,0.0,88,0.00,,---,0.00,VWS V14.01,2013-01-10 10:55:00,
2013-01-10 05:00:00,24.5,21.6,30.43,SSW,195,0.0,0.0,88,0.00,,---,0.00,VWS V14.01,2013-01-10 11:00:00,
2013-01-10 05:05:00,24.5,21.6,30.43,SSW,194,0.0,0.0,88,0.00,,---,0.00,VWS V14.01,2013-01-10 11:05:00,
2013-01-10 05:10:00,24.4,21.5,30.42,SSW,194,0.0,0.0,88,0.00,,---,0.00,VWS V14.01,2013-01-10 11:10:00,
2013-01-10 05:15:00,24.3,21.4,30.42,SSW,194,0.0,0.0,88,0.00,,---,0.00,VWS V14.01,2013-01-10 11:15:00,
2013-01-10 05:20:00,24.2,21.3,30.42,SSW,194,0.0,0.0,88,0.00,,---,0.00,VWS V14.01,2013-01-10 11:20:00,
2013-01-10 05:25:00,24.3,21.4,30.42,SSW,194,0.0,0.0,88,0.00,,---,0.00,VWS V14.01,2013-01-10 11:25:00,
2013-01-10 05:30:00,24.3,21.4,30.42,SSW,195,0.0,0.0,88,0.00,,---,0.00,VWS V14.01,2013-01-10 11:30:00,
2013-01-10 05:35:00,24.3,21.4,30.42,SSW,194,0.0,0.0,88,0.00,,---,0.00,VWS V14.01,2013-01-10 11:35:00,
2013-01-10 05:40:00,24.3,21.4,30.41,SSW,194,0.0,0.0,88,0.00,,---,0.00,VWS V14.01,2013-01-10 11:40:00,
2013-01-10 05:45:00,24.2,21.3,30.41,SSW,194,0.0,0.0,88,0.00,,---,0.00,VWS V14.01,2013-01-10 11:45:00,
2013-01-10 05:50:00,24.1,21.2,30.41,SSW,194,0.0,0.0,88,0.00,,---,0.00,VWS V14.01,2013-01-10 11:50:00,
2013-01-10 05:55:00,24.0,21.1,30.41,SSW,195,0.0,0.0,88,0.00,,---,0.00,VWS V14.01,2013-01-10 11:55:00,
2013-01-10 06:00:00,23.9,21.0,30.41,SSW,194,0.0,0.0,88,0.00,,---,0.00,VWS V14.01,2013-01-10 12:00:00,
2013-01-10 06:05:00,23.9,21.0,30.42,SSW,194,0.0,0.0,88,0.00,,---,0.00,VWS V14.01,2013-01-10 12:05:00,
2013-01-10 06:10:00,24.0,21.1,30.42,SSW,194,0.0,0.0,88,0.00,,---,0.00,VWS V14.01,2013-01-10 12:10:00,
2013-01-10 06:15:00,24.2,21.3,30.42,SSW,195,0.0,0.0,88,0.00,,---,0.00,VWS V14.01,2013-01-10 12:15:00,
2013-01-10 06:20:00,24.4,21.5,30.42,SSW,194,0.0,0.0,88,0.00,,---,0.00,VWS V14.01,2013-01-10 12:20:00,
2013-01-10 06:25:00,24.4,21.5,30.42,SSW,194,0.0,0.0,88,0.00,,---,0.00,VWS V14.01,2013-01-10 12:25:00,
2013-01-10 06:30:00,24.5,21.6,30.42,SSW,194,0.0,0.0,88,0.00,,---,0.00,VWS V14.01,2013-01-10 12:30:00,
2013-01-10 06:35:00,24.5,21.6,30.41,SSW,195,0.0,0.0,88,0.00,,---,0.00,VWS V14.01,2013-01-10 12:35:00,
2013-01-10 06:40:00,24.6,21.6,30.41,SSW,194,0.0,0.0,88,0.00,,---,0.00,VWS V14.01,2013-01-10 12:40:00,
2013-01-10 06:45:00,24.7,21.8,30.41,SSW,195,0.0,0.0,88,0.00,,---,0.00,VWS V14.01,2013-01-10 12:45:00,
2013-01-10 06:50:00,24.7,21.8,30.41,SSW,195,0.0,0.0,88,0.00,,---,0.00,VWS V14.01,2013-01-10 12:50:00,
2013-01-10 06:55:00,24.9,22.0,30.41,SSW,194,0.0,0.0,88,0.00,,---,0.00,VWS V14.01,2013-01-10 12:55:00,
2013-01-10 07:00:00,25.1,22.1,30.41,SSW,194,0.0,0.0,88,0.00,,---,0.00,VWS V14.01,2013-01-10 13:00:00,
2013-01-10 07:05:00,25.3,22.3,30.41,SSW,194,0.0,0.0,88,0.00,,---,0.00,VWS V14.01,2013-01-10 13:05:00,
2013-01-10 07:10:00,25.5,22.5,30.41,SSW,195,0.0,0.0,88,0.00,,---,0.00,VWS V14.01,2013-01-10 13:10:00,
2013-01-10 07:15:00,25.7,22.7,30.41,SSW,194,0.0,0.0,88,0.00,,---,0.00,VWS V14.01,2013-01-10 13:15:00,
2013-01-10 07:20:00,25.9,22.9,30.40,SSW,194,0.0,0.0,88,0.00,,---,0.00,VWS V14.01,2013-01-10 13:20:00,
2013-01-10 07:25:00,26.0,22.8,30.40,SSW,194,0.0,0.0,87,0.00,,---,0.00,VWS V14.01,2013-01-10 13:25:00,
2013-01-10 07:30:00,26.2,23.0,30.40,SSW,194,0.0,0.0,87,0.00,,---,0.00,VWS V14.01,2013-01-10 13:30:00,
2013-01-10 07:35:00,26.4,23.2,30.40,SSW,194,0.0,0.0,87,0.00,,---,0.00,VWS V14.01,2013-01-10 13:35:00,
2013-01-10 07:40:00,26.5,23.3,30.40,South,184,0.0,0.0,87,0.00,,---,0.00,VWS V14.01,2013-01-10 13:40:00,
2013-01-10 07:45:00,26.7,23.5,30.40,SE,135,0.0,0.0,87,0.00,,---,0.00,VWS V14.01,2013-01-10 13:45:00,
2013-01-10 07:50:00,26.9,23.4,30.40,SE,135,0.0,0.0,86,0.00,,---,0.00,VWS V14.01,2013-01-10 13:50:00,
2013-01-10 07:55:00,27.1,23.6,30.40,SE,135,0.0,0.0,86,0.00,,---,0.00,VWS V14.01,2013-01-10 13:55:00,
2013-01-10 08:00:00,27.7,24.2,30.39,East,98,0.0,0.0,86,0.00,,---,0.00,VWS V14.01,2013-01-10 14:00:00,
2013-01-10 08:05:00,28.4,24.4,30.39,ESE,113,0.0,3.6,85,0.00,,---,0.00,VWS V14.01,2013-01-10 14:05:00,
2013-01-10 08:10:00,28.8,24.5,30.39,ESE,117,0.0,5.4,84,0.00,,---,0.00,VWS V14.01,2013-01-10 14:10:00,
2013-01-10 08:15:00,29.1,24.5,30.39,SSW,201,0.0,3.6,83,0.00,,---,0.00,VWS V14.01,2013-01-10 14:15:00,
2013-01-10 08:20:00,29.4,24.5,30.39,ESE,110,3.6,7.2,82,0.00,,---,0.00,VWS V14.01,2013-01-10 14:20:00,
2013-01-10 08:25:00,29.6,24.7,30.38,ESE,120,1.8,5.4,82,0.00,,---,0.00,VWS V14.01,2013-01-10 14:25:00,
2013-01-10 08:30:00,29.8,24.7,30.38,ESE,105,1.8,7.2,81,0.00,,---,0.00,VWS V14.01,2013-01-10 14:30:00,
2013-01-10 08:35:00,30.1,25.0,30.37,ESE,107,3.6,3.6,81,0.00,,---,0.00,VWS V14.01,2013-01-10 14:35:00,
2013-01-10 08:40:00,30.3,24.9,30.37,ESE,107,0.0,5.4,80,0.00,,---,0.00,VWS V14.01,2013-01-10 14:40:00,
2013-01-10 08:45:00,30.5,25.1,30.37,East,82,0.0,7.2,80,0.00,,---,0.00,VWS V14.01,2013-01-10 14:45:00,
2013-01-10 08:50:00,30.7,25.3,30.37,SE,133,1.8,5.4,80,0.00,,---,0.00,VWS V14.01,2013-01-10 14:50:00,
2013-01-10 08:55:00,31.0,25.3,30.37,SE,134,1.8,5.4,79,0.00,,---,0.00,VWS V14.01,2013-01-10 14:55:00,
2013-01-10 09:00:00,31.3,25.6,30.37,ESE,110,3.6,3.6,79,0.00,,---,0.00,VWS V14.01,2013-01-10 15:00:00,
2013-01-10 09:05:00,31.4,25.4,30.37,ESE,102,0.0,5.4,78,0.00,,---,0.00,VWS V14.01,2013-01-10 15:05:00,
2013-01-10 09:10:00,31.7,25.7,30.36,SE,132,5.4,5.4,78,0.00,,---,0.00,VWS V14.01,2013-01-10 15:10:00,
2013-01-10 09:15:00,31.9,25.9,30.36,ESE,117,1.8,5.4,78,0.00,,---,0.00,VWS V14.01,2013-01-10 15:15:00,
2013-01-10 09:20:00,32.2,26.2,30.36,ESE,109,1.8,3.6,78,0.00,,---,0.00,VWS V14.01,2013-01-10 15:20:00,
2013-01-10 09:25:00,32.5,25.9,30.35,ESE,112,0.0,5.4,76,0.00,,---,0.00,VWS V14.01,2013-01-10 15:25:00,
2013-01-10 09:30:00,32.7,26.4,30.35,SE,129,0.0,5.4,77,0.00,,---,0.00,VWS V14.01,2013-01-10 15:30:00,
2013-01-10 09:35:00,33.0,26.1,30.34,ESE,108,7.2,9.0,75,0.00,,---,0.00,VWS V14.01,2013-01-10 15:35:00,
2013-01-10 09:40:00,33.2,26.2,30.34,ESE,113,3.6,9.0,75,0.00,,---,0.00,VWS V14.01,2013-01-10 15:40:00,
2013-01-10 09:45:00,33.4,25.9,30.34,ESE,108,5.4,10.8,73,0.00,,---,0.00,VWS V14.01,2013-01-10 15:45:00,
2013-01-10 09:50:00,33.6,26.3,30.34,East,101,1.8,7.2,74,0.00,,---,0.00,VWS V14.01,2013-01-10 15:50:00,
2013-01-10 09:55:00,33.8,26.5,30.33,SE,128,3.6,9.0,74,0.00,,---,0.00,VWS V14.01,2013-01-10 15:55:00,
2013-01-10 10:00:00,33.9,26.3,30.33,ESE,104,1.8,7.2,73,0.00,,---,0.00,VWS V14.01,2013-01-10 16:00:00,
2013-01-10 10:05:00,34.1,26.5,30.33,ESE,108,3.6,7.2,73,0.00,,---,0.00,VWS V14.01,2013-01-10 16:05:00,
2013-01-10 10:10:00,34.4,26.8,30.32,ESE,108,7.2,10.8,73,0.00,,---,0.00,VWS V14.01,2013-01-10 16:10:00,
2013-01-10 10:15:00,34.8,26.9,30.32,ESE,113,3.6,9.0,73,0.00,,---,0.00,VWS V14.01,2013-01-10 16:15:00,
2013-01-10 10:20:00,35.2,27.0,30.32,ESE,115,5.4,9.0,72,0.00,,---,0.00,VWS V14.01,2013-01-10 16:20:00,
2013-01-10 10:25:00,35.6,27.0,30.31,SSE,152,5.4,14.4,71,0.00,,---,0.00,VWS V14.01,2013-01-10 16:25:00,
2013-01-10 10:30:00,36.0,27.1,30.31,ESE,121,5.4,9.0,70,0.00,,---,0.00,VWS V14.01,2013-01-10 16:30:00,
2013-01-10 10:35:00,36.6,27.7,30.30,ESE,102,7.2,9.0,70,0.00,,---,0.00,VWS V14.01,2013-01-10 16:35:00,
2013-01-10 10:40:00,36.9,27.3,30.30,SE,132,1.8,10.8,68,0.00,,---,0.00,VWS V14.01,2013-01-10 16:40:00,
2013-01-10 10:45:00,37.2,27.2,30.30,East,96,7.2,16.2,67,0.00,,---,0.00,VWS V14.01,2013-01-10 16:45:00,
2013-01-10 10:50:00,37.1,27.2,30.30,ESE,102,7.2,12.6,67,0.00,,---,0.00,VWS V14.01,2013-01-10 16:50:00,
2013-01-10 10:55:00,36.8,26.9,30.29,ESE,106,7.2,14.4,67,0.00,,---,0.00,VWS V14.01,2013-01-10 16:55:00,
2013-01-10 11:00:00,36.8,26.9,30.29,ESE,115,3.6,10.8,67,0.00,,---,0.00,VWS V14.01,2013-01-10 17:00:00,
2013-01-10 11:05:00,37.0,27.1,30.28,ESE,112,5.4,14.4,67,0.00,,---,0.00,VWS V14.01,2013-01-10 17:05:00,
2013-01-10 11:10:00,37.0,27.1,30.27,SSE,149,3.6,9.0,67,0.00,,---,0.00,VWS V14.01,2013-01-10 17:10:00,
2013-01-10 11:15:00,37.2,26.9,30.26,SSE,149,5.4,10.8,66,0.00,,---,0.00,VWS V14.01,2013-01-10 17:15:00,
2013-01-10 11:20:00,37.3,27.0,30.26,ESE,120,3.6,10.8,66,0.00,,---,0.00,VWS V14.01,2013-01-10 17:20:00,
2013-01-10 11:25:00,37.4,26.8,30.25,ESE,113,3.6,9.0,65,0.00,,---,0.00,VWS V14.01,2013-01-10 17:25:00,
2013-01-10 11:30:00,37.7,27.4,30.25,ESE,104,3.6,10.8,66,0.00,,---,0.00,VWS V14.01,2013-01-10 17:30:00,
2013-01-10 11:35:00,37.7,27.0,30.25,East,85,9.0,12.6,65,0.00,,---,0.00,VWS V14.01,2013-01-10 17:35:00,
2013-01-10 11:40:00,37.7,27.0,30.24,East,86,5.4,9.0,65,0.00,,---,0.00,VWS V14.01,2013-01-10 17:40:00,
2013-01-10 11:45:00,37.8,27.1,30.24,ESE,113,5.4,10.8,65,0.00,,---,0.00,VWS V14.01,2013-01-10 17:45:00,
2013-01-10 11:50:00,38.0,27.3,30.23,ENE,76,3.6,9.0,65,0.00,,---,0.00,VWS V14.01,2013-01-10 17:50:00,
2013-01-10 11:55:00,38.2,27.5,30.23,East,87,1.8,10.8,65,0.00,,---,0.00,VWS V14.01,2013-01-10 17:55:00,
2013-01-10 12:00:00,38.4,27.7,30.22,East,97,3.6,12.6,65,0.00,,---,0.00,VWS V14.01,2013-01-10 18:00:00,
2013-01-10 12:05:00,38.7,28.0,30.22,East,91,5.4,7.2,65,0.00,,---,0.00,VWS V14.01,2013-01-10 18:05:00,
2013-01-10 12:10:00,38.9,27.8,30.21,ESE,114,3.6,10.8,64,0.00,,---,0.00,VWS V14.01,2013-01-10 18:10:00,
2013-01-10 12:15:00,38.9,28.2,30.21,ESE,112,5.4,12.6,65,0.00,,---,0.00,VWS V14.01,2013-01-10 18:15:00,
2013-01-10 12:20:00,38.9,28.2,30.20,ESE,115,7.2,10.8,65,0.00,,---,0.00,VWS V14.01,2013-01-10 18:20:00,
2013-01-10 12:25:00,39.1,28.7,30.19,SSE,150,3.6,12.6,66,0.00,,---,0.00,VWS V14.01,2013-01-10 18:25:00,
2013-01-10 12:30:00,39.2,28.5,30.18,ENE,74,3.6,10.8,65,0.00,,---,0.00,VWS V14.01,2013-01-10 18:30:00,
2013-01-10 12:35:00,39.3,28.6,30.17,ESE,110,10.8,10.8,65,0.00,,---,0.00,VWS V14.01,2013-01-10 18:35:00,
2013-01-10 12:40:00,39.4,28.3,30.17,East,91,12.6,12.6,64,0.00,,---,0.00,VWS V14.01,2013-01-10 18:40:00,
2013-01-10 12:45:00,39.5,27.7,30.16,South,172,9.0,23.4,62,0.00,,---,0.00,VWS V14.01,2013-01-10 18:45:00,
2013-01-10 12:50:00,39.6,28.5,30.15,ESE,104,3.6,10.8,64,0.00,,---,0.00,VWS V14.01,2013-01-10 18:50:00,
2013-01-10 12:55:00,39.8,28.3,30.15,SSE,153,5.4,16.2,63,0.00,,---,0.00,VWS V14.01,2013-01-10 18:55:00,
2013-01-10 13:00:00,39.9,28.4,30.14,NE,51,7.2,12.6,63,0.00,,---,0.00,VWS V14.01,2013-01-10 19:00:00,
2013-01-10 13:05:00,40.0,28.2,30.14,ESE,114,7.2,16.2,62,0.00,,---,0.00,VWS V14.01,2013-01-10 19:05:00,
2013-01-10 13:10:00,40.0,28.2,30.13,ENE,74,3.6,10.8,62,0.00,,---,0.00,VWS V14.01,2013-01-10 19:10:00,
2013-01-10 13:15:00,40.1,28.3,30.13,East,83,3.6,16.2,62,0.00,,---,0.00,VWS V14.01,2013-01-10 19:15:00,
2013-01-10 13:20:00,40.2,28.4,30.13,ESE,103,3.6,12.6,62,0.00,,---,0.00,VWS V14.01,2013-01-10 19:20:00,
2013-01-10 13:25:00,40.2,28.4,30.13,ESE,108,3.6,12.6,62,0.00,,---,0.00,VWS V14.01,2013-01-10 19:25:00,
2013-01-10 13:30:00,40.3,28.8,30.13,NNW,332,3.6,7.2,63,0.00,,---,0.00,VWS V14.01,2013-01-10 19:30:00,
2013-01-10 13:35:00,40.3,28.5,30.12,ENE,74,3.6,12.6,62,0.00,,---,0.00,VWS V14.01,2013-01-10 19:35:00,
2013-01-10 13:40:00,40.3,28.5,30.12,SE,134,5.4,14.4,62,0.00,,---,0.00,VWS V14.01,2013-01-10 19:40:00,
2013-01-10 13:45:00,40.3,28.8,30.12,ESE,120,5.4,12.6,63,0.00,,---,0.00,VWS V14.01,2013-01-10 19:45:00,
2013-01-10 13:50:00,40.2,29.1,30.12,SE,132,5.4,9.0,64,0.00,,---,0.00,VWS V14.01,2013-01-10 19:50:00,
2013-01-10 13:55:00,40.1,29.0,30.12,ESE,105,9.0,9.0,64,0.00,,---,0.00,VWS V14.01,2013-01-10 19:55:00,
2013-01-10 14:00:00,40.1,28.6,30.12,ESE,102,3.6,14.4,63,0.00,,---,0.00,VWS V14.01,2013-01-10 20:00:00,
2013-01-10 14:05:00,40.1,28.6,30.12,SSE,165,3.6,10.8,63,0.00,,---,0.00,VWS V14.01,2013-01-10 20:05:00,
2013-01-10 14:10:00,40.0,28.9,30.12,ESE,103,3.6,10.8,64,0.00,,---,0.00,VWS V14.01,2013-01-10 20:10:00,
2013-01-10 14:15:00,40.0,28.5,30.12,ESE,110,1.8,16.2,63,0.00,,---,0.00,VWS V14.01,2013-01-10 20:15:00,
2013-01-10 14:20:00,40.0,28.5,30.11,ESE,108,7.2,12.6,63,0.00,,---,0.00,VWS V14.01,2013-01-10 20:20:00,
2013-01-10 14:25:00,40.0,28.5,30.11,ENE,74,5.4,10.8,63,0.00,,---,0.00,VWS V14.01,2013-01-10 20:25:00,
2013-01-10 14:30:00,40.0,28.5,30.11,ENE,64,3.6,10.8,63,0.00,,---,0.00,VWS V14.01,2013-01-10 20:30:00,
2013-01-10 14:35:00,40.0,28.9,30.10,East,94,5.4,9.0,64,0.00,,---,0.00,VWS V14.01,2013-01-10 20:35:00,
2013-01-10 14:40:00,40.1,29.0,30.10,East,86,1.8,14.4,64,0.00,,---,0.00,VWS V14.01,2013-01-10 20:40:00,
2013-01-10 14:45:00,40.1,29.0,30.09,SE,145,3.6,9.0,64,0.00,,---,0.00,VWS V14.01,2013-01-10 20:45:00,
2013-01-10 14:50:00,40.1,29.0,30.09,ENE,66,5.4,12.6,64,0.00,,---,0.00,VWS V14.01,2013-01-10 20:50:00,
2013-01-10 14:55:00,40.2,29.1,30.09,ESE,102,9.0,12.6,64,0.00,,---,0.00,VWS V14.01,2013-01-10 20:55:00,
2013-01-10 15:00:00,40.2,29.1,30.09,SW,235,5.4,19.8,64,0.00,,---,0.00,VWS V14.01,2013-01-10 21:00:00,
2013-01-10 15:05:00,40.3,28.8,30.09,East,96,7.2,9.0,63,0.00,,---,0.00,VWS V14.01,2013-01-10 21:05:00,
2013-01-10 15:10:00,40.4,29.3,30.08,ESE,102,9.0,14.4,64,0.00,,---,0.00,VWS V14.01,2013-01-10 21:10:00,
2013-01-10 15:15:00,40.4,28.9,30.08,SE,142,3.6,12.6,63,0.00,,---,0.00,VWS V14.01,2013-01-10 21:15:00,
2013-01-10 15:20:00,40.5,29.0,30.08,ESE,104,5.4,9.0,63,0.00,,---,0.00,VWS V14.01,2013-01-10 21:20:00,
2013-01-10 15:25:00,40.5,29.4,30.08,ENE,78,5.4,12.6,64,0.00,,---,0.00,VWS V14.01,2013-01-10 21:25:00,
2013-01-10 15:30:00,40.5,29.4,30.08,ESE,106,1.8,16.2,64,0.00,,---,0.00,VWS V14.01,2013-01-10 21:30:00,
2013-01-10 15:35:00,40.3,29.2,30.07,East,85,5.4,12.6,64,0.00,,---,0.00,VWS V14.01,2013-01-10 21:35:00,
2013-01-10 15:40:00,40.2,29.8,30.07,East,87,7.2,12.6,66,0.00,,---,0.00,VWS V14.01,2013-01-10 21:40:00,
2013-01-10 15:45:00,39.8,31.1,30.07,SE,124,7.2,12.6,71,0.00,,---,0.00,VWS V14.01,2013-01-10 21:45:00,
2013-01-10 15:50:00,39.1,31.4,30.07,SE,132,10.8,14.4,73,0.01,,---,0.01,VWS V14.01,2013-01-10 21:50:00,
2013-01-10 15:55:00,38.4,31.6,30.07,ESE,112,7.2,12.6,76,0.01,,---,0.01,VWS V14.01,2013-01-10 21:55:00,
2013-01-10 16:00:00,37.9,31.7,30.07,ESE,103,5.4,10.8,78,0.02,,---,0.02,VWS V14.01,2013-01-10 22:00:00,
2013-01-10 16:05:00,37.5,31.9,30.07,ESE,103,3.6,7.2,80,0.02,,---,0.02,VWS V14.01,2013-01-10 22:05:00,
2013-01-10 16:10:00,37.2,32.2,30.06,ESE,102,0.0,9.0,82,0.02,,---,0.02,VWS V14.01,2013-01-10 22:10:00,
2013-01-10 16:15:00,36.9,32.2,30.07,SE,124,0.0,7.2,83,0.02,,---,0.02,VWS V14.01,2013-01-10 22:15:00,
2013-01-10 16:20:00,36.8,32.3,30.07,SE,124,9.0,9.0,84,0.02,,---,0.02,VWS V14.01,2013-01-10 22:20:00,
2013-01-10 16:25:00,36.8,32.6,30.06,ESE,110,3.6,9.0,85,0.02,,---,0.02,VWS V14.01,2013-01-10 22:25:00,
2013-01-10 16:30:00,36.8,32.9,30.05,East,89,5.4,16.2,86,0.02,,---,0.02,VWS V14.01,2013-01-10 22:30:00,
2013-01-10 16:35:00,36.8,32.9,30.04,SE,144,5.4,12.6,86,0.03,,---,0.03,VWS V14.01,2013-01-10 22:35:00,
2013-01-10 16:40:00,36.7,33.1,30.04,East,98,3.6,14.4,86,0.03,,---,0.03,VWS V14.01,2013-01-10 22:40:00,
2013-01-10 16:45:00,36.6,33.0,30.04,ESE,122,3.6,10.8,86,0.04,,---,0.04,VWS V14.01,2013-01-10 22:45:00,
2013-01-10 16:50:00,36.5,32.9,30.04,NE,40,1.8,16.2,86,0.04,,---,0.04,VWS V14.01,2013-01-10 22:50:00,
2013-01-10 16:55:00,36.4,33.0,30.04,SE,134,10.8,14.4,87,0.03,,---,0.04,VWS V14.01,2013-01-10 22:55:00,
2013-01-10 17:00:00,36.3,32.9,30.03,East,101,3.6,12.6,87,0.03,,---,0.04,VWS V14.01,2013-01-10 23:00:00,
2013-01-10 17:05:00,36.3,32.9,30.04,SE,127,7.2,14.4,87,0.02,,---,0.04,VWS V14.01,2013-01-10 23:05:00,
2013-01-10 17:10:00,36.3,32.9,30.03,ESE,122,1.8,7.2,87,0.02,,---,0.04,VWS V14.01,2013-01-10 23:10:00,
2013-01-10 17:15:00,36.3,32.9,30.03,SE,143,7.2,10.8,87,0.02,,---,0.04,VWS V14.01,2013-01-10 23:15:00,
2013-01-10 17:20:00,36.2,32.8,30.02,SW,217,5.4,10.8,87,0.02,,---,0.04,VWS V14.01,2013-01-10 23:20:00,
2013-01-10 17:25:00,36.2,33.1,30.02,ESE,120,3.6,9.0,88,0.02,,---,0.04,VWS V14.01,2013-01-10 23:25:00,
2013-01-10 17:30:00,36.1,33.0,30.02,ESE,115,3.6,10.8,88,0.02,,---,0.04,VWS V14.01,2013-01-10 23:30:00,
2013-01-10 17:35:00,36.1,33.0,30.02,ESE,110,5.4,7.2,88,0.02,,---,0.04,VWS V14.01,2013-01-10 23:35:00,
2013-01-10 17:40:00,36.0,32.9,30.02,SE,124,1.8,10.8,88,0.01,,---,0.04,VWS V14.01,2013-01-10 23:40:00,
2013-01-10 17:45:00,36.0,32.9,30.02,East,83,1.8,9.0,88,0.01,,---,0.04,VWS V14.01,2013-01-10 23:45:00,
2013-01-10 17:50:00,35.9,32.8,30.01,ESE,123,3.6,12.6,88,0.00,,---,0.04,VWS V14.01,2013-01-10 23:50:00,
2013-01-10 17:55:00,36.0,32.9,30.01,East,95,1.8,7.2,88,0.00,,---,0.04,VWS V14.01,2013-01-10 23:55:00,
2013-01-10 18:00:00,36.0,32.9,30.01,ESE,104,1.8,10.8,88,0.00,,---,0.04,VWS V14.01,2013-01-11 00:00:00,
2013-01-10 18:05:00,36.0,32.9,30.00,ESE,105,1.8,7.2,88,0.00,,---,0.04,VWS V14.01,2013-01-11 00:05:00,
2013-01-10 18:10:00,36.1,33.0,30.00,ENE,74,3.6,5.4,88,0.00,,---,0.04,VWS V14.01,2013-01-11 00:10:00,
2013-01-10 18:15:00,36.1,33.0,29.99,ESE,123,3.6,10.8,88,0.01,,---,0.05,VWS V14.01,2013-01-11 00:15:00,
2013-01-10 18:20:00,36.1,33.0,29.98,East,91,3.6,10.8,88,0.01,,---,0.05,VWS V14.01,2013-01-11 00:20:00,
2013-01-10 18:25:00,36.2,33.1,29.98,North,7,3.6,14.4,88,0.01,,---,0.05,VWS V14.01,2013-01-11 00:25:00,
2013-01-10 18:30:00,36.2,33.1,29.98,SSE,163,1.8,16.2,88,0.01,,---,0.05,VWS V14.01,2013-01-11 00:30:00,
2013-01-10 18:35:00,36.2,33.3,29.98,ESE,120,9.0,9.0,89,0.02,,---,0.06,VWS V14.01,2013-01-11 00:35:00,
2013-01-10 18:40:00,36.3,33.5,29.98,ESE,115,5.4,7.2,89,0.02,,---,0.06,VWS V14.01,2013-01-11 00:40:00,
2013-01-10 18:45:00,36.3,33.5,29.98,ESE,108,3.6,9.0,89,0.02,,---,0.06,VWS V14.01,2013-01-11 00:45:00,
2013-01-10 18:50:00,36.3,33.5,29.98,SSE,152,3.6,10.8,89,0.02,,---,0.06,VWS V14.01,2013-01-11 00:50:00,
2013-01-10 18:55:00,36.3,33.5,29.98,SW,215,1.8,7.2,89,0.02,,---,0.06,VWS V14.01,2013-01-11 00:55:00,
2013-01-10 19:00:00,36.3,33.5,29.97,SE,132,5.4,5.4,89,0.02,,---,0.06,VWS V14.01,2013-01-11 01:00:00,
2013-01-10 19:05:00,36.3,33.5,29.97,SE,129,1.8,7.2,89,0.02,,---,0.06,VWS V14.01,2013-01-11 01:05:00,
2013-01-10 19:10:00,36.4,33.5,29.97,ESE,117,1.8,7.2,89,0.02,,---,0.06,VWS V14.01,2013-01-11 01:10:00,
2013-01-10 19:15:00,36.5,33.7,29.96,SE,132,1.8,9.0,89,0.02,,---,0.06,VWS V14.01,2013-01-11 01:15:00,
2013-01-10 19:20:00,36.5,33.7,29.96,East,98,1.8,5.4,89,0.02,,---,0.07,VWS V14.01,2013-01-11 01:20:00,
2013-01-10 19:25:00,36.5,33.7,29.95,ESE,104,1.8,10.8,89,0.02,,---,0.07,VWS V14.01,2013-01-11 01:25:00,
2013-01-10 19:30:00,36.5,33.7,29.96,SE,132,1.8,3.6,89,0.02,,---,0.07,VWS V14.01,2013-01-11 01:30:00,
2013-01-10 19:35:00,36.5,33.7,29.95,SE,144,3.6,3.6,89,0.03,,---,0.08,VWS V14.01,2013-01-11 01:35:00,
2013-01-10 19:40:00,36.5,33.7,29.95,East,98,1.8,5.4,89,0.03,,---,0.09,VWS V14.01,2013-01-11 01:40:00,
2013-01-10 19:45:00,36.5,33.7,29.94,East,96,3.6,5.4,89,0.04,,---,0.10,VWS V14.01,2013-01-11 01:45:00,
2013-01-10 19:50:00,36.6,33.8,29.94,SE,127,0.0,5.4,89,0.05,,---,0.11,VWS V14.01,2013-01-11 01:50:00,
2013-01-10 19:55:00,36.7,33.8,29.93,ESE,112,3.6,3.6,89,0.07,,---,0.13,VWS V14.01,2013-01-11 01:55:00,
2013-01-10 20:00:00,36.7,33.8,29.93,SSE,159,0.0,9.0,89,0.09,,---,0.15,VWS V14.01,2013-01-11 02:00:00,
2013-01-10 20:05:00,36.8,34.0,29.92,ESE,103,3.6,7.2,89,0.10,,---,0.16,VWS V14.01,2013-01-11 02:05:00,
2013-01-10 20:10:00,36.9,34.0,29.91,East,96,3.6,7.2,89,0.12,,---,0.18,VWS V14.01,2013-01-11 02:10:00,
2013-01-10 20:15:00,37.0,34.4,29.92,ESE,107,1.8,7.2,90,0.15,,---,0.21,VWS V14.01,2013-01-11 02:15:00,
2013-01-10 20:20:00,37.0,34.4,29.92,SE,127,5.4,7.2,90,0.17,,---,0.23,VWS V14.01,2013-01-11 02:20:00,
2013-01-10 20:25:00,37.0,34.4,29.91,ESE,110,1.8,7.2,90,0.18,,---,0.25,VWS V14.01,2013-01-11 02:25:00,
2013-01-10 20:30:00,37.1,34.5,29.92,SE,131,1.8,9.0,90,0.22,,---,0.29,VWS V14.01,2013-01-11 02:30:00,
2013-01-10 20:35:00,37.0,34.1,29.91,East,91,3.6,9.0,89,0.25,,---,0.32,VWS V14.01,2013-01-11 02:35:00,
2013-01-10 20:40:00,37.0,34.4,29.91,SSW,212,1.8,10.8,90,0.27,,---,0.35,VWS V14.01,2013-01-11 02:40:00,
2013-01-10 20:45:00,37.1,34.5,29.91,ESE,110,1.8,3.6,90,0.29,,---,0.38,VWS V14.01,2013-01-11 02:45:00,
2013-01-10 20:50:00,37.1,34.5,29.92,East,100,1.8,3.6,90,0.30,,---,0.40,VWS V14.01,2013-01-11 02:50:00,
2013-01-10 20:55:00,37.1,34.5,29.93,South,184,0.0,3.6,90,0.33,,---,0.44,VWS V14.01,2013-01-11 02:55:00,
2013-01-10 21:00:00,37.1,34.5,29.91,East,96,0.0,5.4,90,0.36,,---,0.49,VWS V14.01,2013-01-11 03:00:00,
2013-01-10 21:05:00,37.1,34.5,29.91,East,98,5.4,5.4,90,0.40,,---,0.55,VWS V14.01,2013-01-11 03:05:00,
2013-01-10 21:10:00,37.1,34.5,29.91,SSE,157,0.0,5.4,90,0.43,,---,0.60,VWS V14.01,2013-01-11 03:10:00,
2013-01-10 21:15:00,37.1,34.5,29.91,SSW,204,0.0,0.0,90,0.47,,---,0.65,VWS V14.01,2013-01-11 03:15:00,
2013-01-10 21:20:00,37.1,34.5,29.90,SSW,203,0.0,0.0,90,0.51,,---,0.72,VWS V14.01,2013-01-11 03:20:00,
2013-01-10 21:25:00,37.2,34.6,29.90,ESE,108,0.0,0.0,90,0.59,,---,0.82,VWS V14.01,2013-01-11 03:25:00,
2013-01-10 21:30:00,37.3,34.7,29.90,East,98,0.0,3.6,90,0.63,,---,0.88,VWS V14.01,2013-01-11 03:30:00,
2013-01-10 21:35:00,37.3,34.7,29.90,East,101,0.0,1.8,90,0.61,,---,0.90,VWS V14.01,2013-01-11 03:35:00,
2013-01-10 21:40:00,37.3,34.7,29.90,East,100,0.0,0.0,90,0.60,,---,0.92,VWS V14.01,2013-01-11 03:40:00,
2013-01-10 21:45:00,37.3,34.7,29.89,ESE,107,1.8,3.6,90,0.58,,---,0.93,VWS V14.01,2013-01-11 03:45:00,
2013-01-10 21:50:00,37.3,34.7,29.89,ESE,120,0.0,1.8,90,0.56,,---,0.94,VWS V14.01,2013-01-11 03:50:00,
2013-01-10 21:55:00,37.3,34.7,29.88,SE,138,0.0,3.6,90,0.54,,---,0.94,VWS V14.01,2013-01-11 03:55:00,
2013-01-10 22:00:00,37.4,34.8,29.88,East,87,0.0,5.4,90,0.51,,---,0.95,VWS V14.01,2013-01-11 04:00:00,
2013-01-10 22:05:00,37.4,34.8,29.87,ESE,111,1.8,3.6,90,0.46,,---,0.95,VWS V14.01,2013-01-11 04:05:00,
2013-01-10 22:10:00,37.4,34.8,29.87,ESE,105,0.0,0.0,90,0.40,,---,0.95,VWS V14.01,2013-01-11 04:10:00,
2013-01-10 22:15:00,37.5,34.9,29.86,East,99,1.8,3.6,90,0.35,,---,0.95,VWS V14.01,2013-01-11 04:15:00,
2013-01-10 22:20:00,37.5,34.9,29.86,ESE,108,0.0,1.8,90,0.30,,---,0.95,VWS V14.01,2013-01-11 04:20:00,
2013-01-10 22:25:00,37.5,34.9,29.86,ESE,120,0.0,1.8,90,0.22,,---,0.95,VWS V14.01,2013-01-11 04:25:00,
2013-01-10 22:30:00,37.5,34.9,29.85,ESE,104,0.0,1.8,90,0.13,,---,0.95,VWS V14.01,2013-01-11 04:30:00,
2013-01-10 22:35:00,37.5,34.9,29.85,SE,141,0.0,1.8,90,0.08,,---,0.96,VWS V14.01,2013-01-11 04:35:00,
2013-01-10 22:40:00,37.5,34.9,29.85,SE,132,0.0,0.0,90,0.06,,---,0.96,VWS V14.01,2013-01-11 04:40:00,
2013-01-10 22:45:00,37.5,34.9,29.85,ESE,107,1.8,3.6,90,0.04,,---,0.96,VWS V14.01,2013-01-11 04:45:00,
2013-01-10 22:50:00,37.6,35.0,29.84,ESE,112,0.0,3.6,90,0.03,,---,0.96,VWS V14.01,2013-01-11 04:50:00,
2013-01-10 22:55:00,37.7,35.1,29.84,ESE,107,1.8,5.4,90,0.02,,---,0.96,VWS V14.01,2013-01-11 04:55:00,
2013-01-10 23:00:00,37.8,35.2,29.84,ESE,102,1.8,3.6,90,0.02,,---,0.96,VWS V14.01,2013-01-11 05:00:00,
2013-01-10 23:03:00,37.8,35.2,29.84,SE,129,1.8,5.4,90,0.01,,---,0.96,VWS V14.01,2013-01-11 05:03:00,
2013-01-10 23:08:00,37.9,35.3,29.82,East,97,3.6,7.2,90,0.01,,---,0.96,VWS V14.01,2013-01-11 05:08:00,
2013-01-10 23:13:00,38.0,35.4,29.82,ESE,108,3.6,7.2,90,0.01,,---,0.96,VWS V14.01,2013-01-11 05:13:00,
2013-01-10 23:18:00,38.0,35.4,29.82,ESE,106,0.0,3.6,90,0.01,,---,0.96,VWS V14.01,2013-01-11 05:18:00,
2013-01-10 23:23:00,38.1,35.5,29.82,East,92,7.2,7.2,90,0.01,,---,0.96,VWS V14.01,2013-01-11 05:23:00,
2013-01-10 23:28:00,38.2,35.6,29.82,ESE,117,0.0,3.6,90,0.01,,---,0.96,VWS V14.01,2013-01-11 05:28:00,
2013-01-10 23:33:00,38.1,35.5,29.81,ESE,117,1.8,7.2,90,0.00,,---,0.96,VWS V14.01,2013-01-11 05:33:00,
2013-01-10 23:38:00,38.1,35.5,29.81,SE,132,0.0,5.4,90,0.00,,---,0.96,VWS V14.01,2013-01-11 05:38:00,
2013-01-10 23:43:00,38.1,35.5,29.81,ESE,111,3.6,9.0,90,0.00,,---,0.96,VWS V14.01,2013-01-11 05:43:00,
2013-01-10 23:48:00,38.2,35.6,29.81,ESE,102,0.0,5.4,90,0.00,,---,0.96,VWS V14.01,2013-01-11 05:48:00,
2013-01-10 23:53:00,38.1,35.5,29.81,East,100,1.8,3.6,90,0.00,,---,0.96,VWS V14.01,2013-01-11 05:53:00,
2013-01-10 23:58:00,38.1,35.5,29.81,SE,135,1.8,5.4,90,0.00,,---,0.96,VWS V14.01,2013-01-11 05:58:00,